Historyczne dane pomiarowe

Dodano dane terminowe – wersja testowa.

Dane z okresu 1951-2019

Wersja bazy: 1.34 [2019-03-16, lista zmian], aktualizacja planowana na 2019-04-15

Dane meteo z obszaru Polski uzyskane na podstawie danych udostępnionych przez Instytut Meteorologii i Gospodarki Wodnej – Państwowy Instytut Badawczy.

 

Wybierz Datę:    

       

TemperaturaWilgotnośćWiatrCiśnienieOpadyŚniegCzas trwania zjawisk
 Stacja t tx tn tng RH VA  wxwx mslp ppp RRR   cm mm wxwxwxwxwxwxwx
1961-08-14 13.5 19.9 8.8- 82.0- 6.7 2.3---- 0.0------------
1961-08-13 14.1 18.5 12.3- 81.5- 5.0 4.0---- 0.0------------
1961-08-12 16.6 21.0 13.3- 87.8- 7.0 3.7---- 19.3------------
1961-08-11 16.8 21.0 14.7- 91.5- 6.7 3.0---- 3.9------------
1961-08-10 18.4 23.2 11.2- 64.8- 4.3 3.7---- 0.7------------
1961-08-09 18.1 25.6 13.0- 75.8- 6.7 3.3---- 0.0------------
1961-08-08 15.4 19.9 12.8- 81.5- 5.3 2.3---- 0.0------------
1961-08-07 17.0 20.6 13.5- 89.0- 7.3 2.7---- 1.4------------
1961-08-06 20.7 27.9 10.6- 76.5- 5.3 4.0---- 8.4------------
1961-08-05 15.6 20.7 12.5- 78.8- 6.0 5.3---- 0.0------------
1961-08-04 15.4 19.3 10.9- 71.8- 7.0 3.3---- 0.7------------
1961-08-03 17.2 22.2 12.0- 83.0- 6.3 3.0---- 0.0------------
1961-08-02 17.0 22.4 11.8- 74.5- 2.3 4.0---- 0.0------------
1961-08-01 13.4 16.5 12.0- 90.0- 8.0 7.0---- 1.6------------
1961-07-31 16.6 20.6 12.5- 77.8- 7.0 7.0---- 0.1------------
1961-07-30 13.4 14.8 10.9- 92.5- 8.0 4.0---- 21.3------------
1961-07-29 14.1 18.8 13.2- 88.3- 7.7 0.7---- 4.0------------
1961-07-28 16.0 18.3 12.6- 88.8- 7.7 4.0---- 15.5------------
1961-07-27 17.0 23.0 13.8- 76.3- 7.7 5.7---- 0.0------------
1961-07-26 14.1 15.8 11.7- 91.5- 8.0 4.7---- 2.9------------
1961-07-25 13.8 17.9 9.6- 78.3- 7.7 5.0---- 0.0------------
1961-07-24 15.3 19.4 12.7- 79.8- 7.0 5.0---- 0.0------------
1961-07-23 14.7 17.8 12.5- 86.3- 7.3 2.7---- 1.6------------
1961-07-22 14.7 19.5 12.9- 87.3- 7.3 3.3---- 3.9------------
1961-07-21 15.6 22.1 9.4- 82.0- 6.3 3.3---- 0.5------------
1961-07-20 17.0 22.4 10.8- 74.3- 2.7 1.0---- 0.0------------
1961-07-19 15.3 21.9 8.6- 83.8- 7.3 2.3---- 0.5------------
1961-07-18 14.3 18.1 11.2- 83.5- 6.7 3.7---- 0.3------------
1961-07-17 15.9 21.9 12.6- 73.5- 6.0 3.7---- 3.6------------
1961-07-16 17.5 23.1 8.0- 79.3- 6.3 4.0---- 3.4------------
1961-07-15 16.8 23.8 9.6- 72.0- 2.0 2.7---- 0.0------------
1961-07-14 15.4 22.4 13.5- 78.3- 8.0 6.7---- 0.0------------
1961-07-13 20.6 26.9 9.9- 72.0- 7.0 3.7---- 0.0------------
1961-07-12 14.3 18.7 7.5- 90.3- 5.3 1.7---- 1.9------------
1961-07-11 13.7 16.5 9.6- 70.8- 5.3 3.3---- 0.0------------
1961-07-10 12.9 18.5 12.0- 86.5- 7.3 5.0---- 2.8------------
1961-07-09 15.9 22.5 11.5- 70.8- 6.3 4.0---- 0.0------------
1961-07-08 15.3 18.7 10.5- 68.5- 6.0 3.7---- 0.2------------
1961-07-07 13.1 18.5 8.2- 77.5- 6.3 4.7---- 0.0------------
1961-07-06 13.4 17.6 6.8- 67.0- 5.3 5.3---- 0.2------------
1961-07-05 14.3 18.3 12.7- 73.8- 6.3 5.3---- 0.0------------
1961-07-04 18.6 23.6 15.2- 69.8- 3.7 5.7---- 0.8------------
1961-07-03 23.0 28.5 12.2- 57.0- 1.3 4.3---- 0.3------------
1961-07-02 20.7 26.4 10.0- 63.5- 0.3 4.0---- 0.0------------
1961-07-01 16.9 22.5 10.9- 73.0- 4.0 0.7---- 0.0------------
1961-06-30 16.4 22.0 9.4- 76.5- 2.3 5.0---- 0.0------------
1961-06-29 13.6 16.4 8.5- 80.5- 6.3 3.7---- 0.0------------
1961-06-28 13.8 22.0 11.7- 80.3- 6.3 5.3---- 11.9------------
1961-06-27 22.7 29.9 10.5- 66.0- 4.7 6.7---- 3.0------------
1961-06-26 18.8 24.2 12.9- 68.3- 4.7 6.7---- 0.0------------
1961-06-25 19.4 24.1 11.9- 61.0- 4.7 6.7---- 0.0------------
1961-06-24 15.6 19.2 11.6- 72.8- 5.3 5.7---- 0.0------------
1961-06-23 15.3 22.4 9.9- 80.8- 5.3 5.7---- 0.0------------
1961-06-22 13.9 19.0 9.9- 75.0- 3.0 3.3---- 2.7------------
1961-06-21 14.4 19.3 6.8- 65.5- 7.0 4.3---- 3.4------------
1961-06-20 12.8 18.1 9.4- 71.5- 4.0 5.0---- 0.0------------
1961-06-19 15.0 20.6 12.8- 70.0- 4.0 6.0---- 0.0------------
1961-06-18 18.2 22.9 10.1- 77.0- 7.7 5.0---- 0.1------------
1961-06-17 13.9 18.1 11.6- 86.5- 5.7 4.0---- 2.4------------
1961-06-16 12.9 15.7 10.9- 83.3- 8.0 6.0---- 13.1------------
312.2 ms

 

Źródłem pochodzenia danych jest Instytut Meteorologii i Gospodarki Wodnej – Państwowy Instytut Badawczy. Dane Instytutu Meteorologii i Gospodarki Wodnej – Państwowego Instytutu Badawczego zostały przetworzone.

Dane źródłowe można odnaleźć na stronie https://dane.imgw.pl